Time;durP1;ratioP1;P1;durP2;ratioP2;P2;SDS_P1;SDS_P2;PMS_P1;PMS_P2;Temp;Humidity;BMP_temperature;BMP_pressure;BME280_temperature;BME280_humidity;BME280_pressure;Samples;Min_cycle;Max_cycle;Signal;HPM_P1;HPM_P2
2023/05/10 00:01:42;;;;;;;5.07;2.38;;;;;;;12.82;55.33;100693.38;4936356;29;20179;-45
2023/05/10 00:04:08;;;;;;;8.13;2.63;;;;;;;12.76;55.46;100690.00;4915958;29;20203;-46
2023/05/10 00:06:33;;;;;;;3.65;2.65;;;;;;;12.70;55.79;100687.66;4933218;29;20187;-45
2023/05/10 00:08:58;;;;;;;4.25;2.65;;;;;;;12.63;55.97;100702.31;4933079;29;20623;-46
2023/05/10 00:11:24;;;;;;;4.63;2.25;;;;;;;12.64;56.04;100704.06;4935043;29;20261;-47
2023/05/10 00:13:49;;;;;;;2.58;2.38;;;;;;;12.64;56.16;100693.31;4952095;28;20200;-44
2023/05/10 00:16:15;;;;;;;5.30;2.45;;;;;;;12.62;56.44;100687.16;4943982;29;20693;-45
2023/05/10 00:18:40;;;;;;;6.05;2.90;;;;;;;12.61;56.65;100695.28;4933151;29;20282;-46
2023/05/10 00:21:06;;;;;;;4.60;2.65;;;;;;;12.56;56.61;100682.94;4944214;29;20312;-50
2023/05/10 00:23:31;;;;;;;3.85;2.63;;;;;;;12.57;56.66;100678.41;4952136;28;20685;-44
2023/05/10 00:25:57;;;;;;;4.30;2.50;;;;;;;12.53;56.82;100684.91;4952644;29;20189;-46
2023/05/10 00:28:23;;;;;;;4.10;2.72;;;;;;;12.53;56.91;100683.09;4934834;29;20626;-47
2023/05/10 00:30:48;;;;;;;3.17;2.30;;;;;;;12.48;56.95;100681.56;4951996;29;20179;-45
2023/05/10 00:33:14;;;;;;;4.82;2.75;;;;;;;12.43;57.17;100683.63;4952050;28;20187;-46
2023/05/10 00:35:40;;;;;;;6.20;2.75;;;;;;;12.41;57.32;100682.81;4952104;29;20246;-46
2023/05/10 00:38:05;;;;;;;4.82;2.30;;;;;;;12.41;57.61;100686.38;4951869;29;20191;-46
2023/05/10 00:40:31;;;;;;;5.60;2.13;;;;;;;12.37;57.46;100687.44;4951946;29;20376;-48
2023/05/10 00:43:01;;;;;;;6.70;2.33;;;;;;;12.30;57.72;100678.81;4928801;29;20238;-46
2023/05/10 00:45:26;;;;;;;4.07;2.83;;;;;;;12.26;57.80;100665.59;4951705;29;20175;-44
2023/05/10 00:47:54;;;;;;;4.35;2.53;;;;;;;12.22;57.98;100664.00;4952040;29;20455;-46
2023/05/10 00:50:23;;;;;;;6.30;2.33;;;;;;;12.27;58.05;100659.31;4951838;29;20234;-45
2023/05/10 00:52:50;;;;;;;4.10;2.50;;;;;;;12.16;58.38;100666.06;4946872;28;20218;-44
2023/05/10 00:55:16;;;;;;;6.63;2.55;;;;;;;12.18;58.43;100659.72;4915760;29;20610;-47
2023/05/10 00:57:42;;;;;;;5.88;2.92;;;;;;;12.13;58.65;100662.63;4932397;29;20195;-44
2023/05/10 01:00:08;;;;;;;3.35;2.80;;;;;;;12.08;58.80;100662.84;4917886;29;20221;-45
2023/05/10 01:02:35;;;;;;;8.05;2.75;;;;;;;12.13;58.77;100663.53;4936205;29;20532;-46
2023/05/10 01:05:03;;;;;;;5.70;2.45;;;;;;;12.11;58.75;100661.84;4927849;29;20195;-48
2023/05/10 01:07:29;;;;;;;5.70;2.80;;;;;;;12.05;58.93;100662.16;4936230;29;20175;-45
2023/05/10 01:09:55;;;;;;;5.93;3.05;;;;;;;12.05;59.02;100651.41;4925027;29;20193;-49
2023/05/10 01:12:21;;;;;;;2.90;2.30;;;;;;;12.13;59.25;100657.25;4954307;28;20708;-45
2023/05/10 01:14:48;;;;;;;4.55;2.45;;;;;;;12.09;59.29;100651.19;4967470;28;20170;-46
2023/05/10 01:17:14;;;;;;;4.22;2.67;;;;;;;12.04;59.22;100653.19;4955557;28;20187;-46
2023/05/10 01:19:41;;;;;;;7.70;2.60;;;;;;;12.03;59.39;100647.91;4945301;29;20266;-44
2023/05/10 01:22:31;;;;;;;3.80;2.65;;;;;;;11.93;59.66;100661.75;4918886;29;20465;-45
2023/05/10 01:25:23;;;;;;;5.00;2.88;;;;;;;11.96;59.92;100652.72;4939844;29;20179;-45
2023/05/10 01:28:01;;;;;;;5.38;2.70;;;;;;;11.95;59.86;100649.13;4937694;29;20251;-48
2023/05/10 01:31:07;;;;;;;7.35;2.90;;;;;;;11.91;60.06;100649.34;4931808;29;20183;-46
2023/05/10 01:33:41;;;;;;;5.60;2.65;;;;;;;11.88;60.27;100655.75;4918439;29;20332;-48
2023/05/10 01:36:34;;;;;;;5.82;3.00;;;;;;;11.84;60.58;100662.16;4935709;29;20163;-48
2023/05/10 01:39:22;;;;;;;4.28;2.60;;;;;;;11.83;60.65;100657.75;4935679;29;20199;-46
2023/05/10 01:42:00;;;;;;;5.50;2.67;;;;;;;11.79;60.70;100652.59;4918347;29;20246;-49
2023/05/10 01:44:40;;;;;;;3.60;2.53;;;;;;;11.69;61.00;100655.66;4935440;29;20185;-45
2023/05/10 01:47:16;;;;;;;5.15;3.33;;;;;;;11.68;61.17;100656.63;4918173;29;20234;-46
2023/05/10 01:49:51;;;;;;;3.88;2.72;;;;;;;11.66;61.31;100654.97;4918496;29;20218;-47
2023/05/10 01:52:22;;;;;;;5.38;2.20;;;;;;;11.74;61.31;100659.03;4918143;29;20247;-47
2023/05/10 01:54:53;;;;;;;6.28;2.65;;;;;;;11.65;61.58;100658.56;4938759;29;20214;-44
2023/05/10 01:57:22;;;;;;;3.08;2.70;;;;;;;11.58;61.83;100660.66;4927716;29;20198;-45
2023/05/10 01:59:50;;;;;;;5.00;2.70;;;;;;;11.65;61.88;100658.56;4941761;29;20565;-48
2023/05/10 02:02:18;;;;;;;5.72;2.72;;;;;;;11.65;61.74;100667.47;4954139;28;20194;-46
2023/05/10 02:04:46;;;;;;;5.78;3.00;;;;;;;11.69;61.85;100666.41;4954179;29;20178;-44
2023/05/10 02:07:14;;;;;;;2.97;2.67;;;;;;;11.58;62.05;100667.84;4936696;29;20175;-58
2023/05/10 02:09:47;;;;;;;3.35;2.67;;;;;;;11.51;62.31;100673.47;4901272;29;20507;-44
2023/05/10 02:12:15;;;;;;;4.03;2.85;;;;;;;11.46;62.50;100667.47;4940209;28;20215;-47
2023/05/10 02:14:42;;;;;;;5.72;2.92;;;;;;;11.42;62.86;100668.53;4917757;29;20179;-46
2023/05/10 02:17:09;;;;;;;6.38;2.80;;;;;;;11.45;62.90;100667.50;4941313;29;20182;-49
2023/05/10 02:19:40;;;;;;;6.38;2.40;;;;;;;11.46;62.93;100658.53;4953979;29;20191;-46
2023/05/10 02:22:08;;;;;;;5.63;3.03;;;;;;;11.41;63.16;100652.50;4953994;28;20301;-47
2023/05/10 02:24:36;;;;;;;5.80;3.00;;;;;;;11.41;63.29;100653.34;4953800;29;20167;-49
2023/05/10 02:27:03;;;;;;;3.22;2.63;;;;;;;11.41;63.26;100649.81;4954180;29;20646;-48
2023/05/10 02:29:31;;;;;;;4.57;2.47;;;;;;;11.34;63.55;100659.94;4953867;29;20196;-46
2023/05/10 02:31:58;;;;;;;4.32;2.97;;;;;;;11.32;63.49;100649.28;4953509;28;20246;-48
2023/05/10 02:34:26;;;;;;;4.88;2.97;;;;;;;11.40;63.52;100669.53;4953802;29;20575;-50
2023/05/10 02:36:53;;;;;;;4.68;3.33;;;;;;;11.29;63.82;100661.97;4940490;29;20668;-49
2023/05/10 02:39:20;;;;;;;3.55;3.25;;;;;;;11.29;63.98;100664.66;4920932;29;20286;-48
2023/05/10 02:41:48;;;;;;;6.68;3.42;;;;;;;11.29;63.99;100664.66;4936395;28;20843;-45
2023/05/10 02:44:15;;;;;;;6.35;2.78;;;;;;;11.30;64.09;100664.59;4936287;29;20583;-47
2023/05/10 02:46:41;;;;;;;5.45;2.92;;;;;;;11.25;64.17;100663.03;4931030;29;20187;-44
2023/05/10 02:49:06;;;;;;;4.68;2.80;;;;;;;11.23;64.36;100662.22;4928069;29;20257;-50
2023/05/10 02:51:35;;;;;;;3.03;2.83;;;;;;;11.23;64.35;100663.09;4953653;29;20712;-45
2023/05/10 02:54:11;;;;;;;3.75;3.17;;;;;;;11.21;64.55;100653.38;4953279;29;20194;-47
2023/05/10 02:56:46;;;;;;;3.70;3.00;;;;;;;11.19;64.55;100656.13;4936369;29;20154;-49
2023/05/10 02:59:12;;;;;;;6.43;2.90;;;;;;;11.14;64.78;100653.63;4935733;29;20213;-47
2023/05/10 03:01:38;;;;;;;4.95;2.65;;;;;;;11.13;64.87;100662.63;4936017;28;20170;-48
2023/05/10 03:04:03;;;;;;;4.03;2.90;;;;;;;11.06;65.18;100660.28;4918147;29;20186;-47
2023/05/10 03:06:29;;;;;;;4.20;2.88;;;;;;;11.11;65.36;100658.28;4934025;29;20167;-51
2023/05/10 03:08:55;;;;;;;4.10;2.88;;;;;;;11.06;65.50;100669.22;4950171;29;20178;-46
2023/05/10 03:12:05;;;;;;;4.10;3.08;;;;;;;11.03;65.68;100655.91;4935479;29;20183;-47
2023/05/10 03:14:45;;;;;;;4.57;3.22;;;;;;;11.01;65.86;100660.47;4837344;29;20187;-45
2023/05/10 03:17:23;;;;;;;4.20;3.00;;;;;;;11.06;65.98;100662.94;4822532;29;20263;-47
2023/05/10 03:19:56;;;;;;;3.95;3.05;;;;;;;11.04;65.79;100659.47;4882289;29;20226;-45
2023/05/10 03:22:30;;;;;;;4.00;3.15;;;;;;;11.06;65.76;100661.16;4933286;29;20199;-48
2023/05/10 03:24:57;;;;;;;7.90;3.25;;;;;;;11.04;65.93;100657.69;4916436;29;20187;-47
2023/05/10 03:27:26;;;;;;;3.40;3.10;;;;;;;10.97;66.28;100656.16;4916124;29;20653;-46
2023/05/10 03:29:55;;;;;;;5.45;3.17;;;;;;;10.96;66.39;100658.94;4933181;29;20171;-47
2023/05/10 03:32:22;;;;;;;2.90;2.70;;;;;;;10.97;66.47;100666.03;4933172;29;20286;-44
2023/05/10 03:34:48;;;;;;;3.72;3.13;;;;;;;10.95;66.68;100657.19;4916273;29;20186;-46
2023/05/10 03:37:13;;;;;;;6.07;3.67;;;;;;;10.95;66.74;100660.72;4916081;29;20179;-46
2023/05/10 03:39:39;;;;;;;4.55;3.28;;;;;;;11.01;66.50;100662.28;4915836;29;20254;-45
2023/05/10 03:42:07;;;;;;;3.88;3.38;;;;;;;10.92;66.83;100663.53;4916064;29;20734;-47
2023/05/10 03:44:33;;;;;;;4.60;3.40;;;;;;;10.89;67.05;100652.97;4916066;29;20175;-48
2023/05/10 03:46:59;;;;;;;3.83;3.30;;;;;;;10.88;67.15;100664.59;4932977;29;20164;-46
2023/05/10 03:49:25;;;;;;;3.38;3.08;;;;;;;10.87;67.35;100669.09;4915839;29;20603;-47
2023/05/10 03:51:50;;;;;;;4.53;3.30;;;;;;;10.83;67.63;100661.25;4920422;28;20218;-47
2023/05/10 03:54:16;;;;;;;4.13;3.40;;;;;;;10.81;67.65;100664.00;4947872;29;20197;-47
2023/05/10 03:56:41;;;;;;;5.85;3.50;;;;;;;10.87;67.94;100658.38;4951033;29;20182;-50
2023/05/10 03:59:08;;;;;;;6.00;3.60;;;;;;;10.95;67.72;100658.03;4934884;29;20199;-48
2023/05/10 04:01:34;;;;;;;5.85;3.50;;;;;;;10.92;67.68;100663.53;4931351;29;20190;-46
2023/05/10 04:04:00;;;;;;;5.85;3.20;;;;;;;10.87;67.72;100653.03;4941932;29;20170;-46
2023/05/10 04:06:25;;;;;;;4.95;3.60;;;;;;;10.96;67.73;100649.09;4950501;29;20179;-46
2023/05/10 04:08:51;;;;;;;3.97;3.40;;;;;;;10.93;67.99;100655.44;4948695;29;20366;-47
2023/05/10 04:11:17;;;;;;;4.38;3.08;;;;;;;10.99;67.74;100656.13;4931488;29;20560;-45
2023/05/10 04:13:42;;;;;;;3.88;3.45;;;;;;;11.01;67.70;100640.84;4933293;29;20206;-47
2023/05/10 04:16:08;;;;;;;5.05;3.78;;;;;;;10.96;67.92;100637.50;4939510;29;20214;-50
2023/05/10 04:18:35;;;;;;;4.15;3.10;;;;;;;11.02;67.98;100645.25;4951759;28;20198;-51
2023/05/10 04:21:00;;;;;;;3.90;3.22;;;;;;;11.11;68.28;100650.25;4952506;28;20683;-48
2023/05/10 04:23:27;;;;;;;4.15;3.70;;;;;;;11.03;67.97;100639.81;4951970;28;20221;-45
2023/05/10 04:25:52;;;;;;;3.55;3.25;;;;;;;11.16;68.07;100639.31;4951894;28;20245;-45
2023/05/10 04:28:18;;;;;;;4.68;3.40;;;;;;;11.18;67.74;100642.78;4950842;29;20179;-46
2023/05/10 04:30:43;;;;;;;5.93;3.40;;;;;;;11.20;67.72;100624.84;4931526;29;20172;-47
2023/05/10 04:33:09;;;;;;;4.15;3.25;;;;;;;11.21;67.67;100632.78;4931592;29;20202;-51
2023/05/10 04:35:35;;;;;;;6.03;3.53;;;;;;;11.22;67.67;100647.09;4935793;29;20174;-46
2023/05/10 04:38:00;;;;;;;4.97;3.40;;;;;;;11.33;67.71;100640.31;4945567;29;20213;-45
2023/05/10 04:40:26;;;;;;;6.47;3.30;;;;;;;11.32;67.54;100635.84;4955692;28;20541;-45
2023/05/10 04:42:51;;;;;;;4.85;3.30;;;;;;;11.42;67.37;100640.84;4955606;28;20660;-48
2023/05/10 04:45:17;;;;;;;5.72;3.55;;;;;;;11.37;67.50;100638.38;4955808;28;20166;-47
2023/05/10 04:47:42;;;;;;;7.05;3.83;;;;;;;11.39;67.47;100624.88;4949307;28;20176;-44
2023/05/10 04:50:08;;;;;;;7.80;3.88;;;;;;;11.48;67.37;100629.84;4936641;29;20191;-45
2023/05/10 04:52:34;;;;;;;4.80;3.30;;;;;;;11.59;67.13;100626.63;4936185;29;20209;-47
2023/05/10 04:54:59;;;;;;;5.75;3.80;;;;;;;11.67;67.08;100627.16;4936301;29;20243;-46
2023/05/10 04:57:25;;;;;;;4.70;3.50;;;;;;;11.75;66.91;100620.50;4936250;29;20631;-46
2023/05/10 04:59:51;;;;;;;4.75;3.72;;;;;;;11.81;66.77;100631.91;4939851;29;20207;-45
2023/05/10 05:02:16;;;;;;;9.30;3.83;;;;;;;11.90;66.47;100632.38;4936205;29;20198;-47
2023/05/10 05:04:42;;;;;;;4.55;3.50;;;;;;;11.68;66.50;100643.22;4942979;29;20391;-45
2023/05/10 05:07:07;;;;;;;4.05;3.60;;;;;;;11.66;66.47;100633.50;4933702;29;20194;-44
2023/05/10 05:09:33;;;;;;;5.63;3.45;;;;;;;11.68;66.40;100628.94;4936184;29;20219;-46
2023/05/10 05:11:58;;;;;;;6.38;3.88;;;;;;;11.66;66.66;100630.81;4940244;28;20206;-49
2023/05/10 05:14:25;;;;;;;5.30;3.45;;;;;;;11.72;66.78;100638.59;4951199;29;20653;-44
2023/05/10 05:16:53;;;;;;;4.03;3.67;;;;;;;11.70;66.80;100637.78;4936015;29;20183;-47
2023/05/10 05:19:19;;;;;;;6.05;3.50;;;;;;;11.68;66.90;100643.22;4935657;29;20203;-52
2023/05/10 05:21:44;;;;;;;4.57;3.60;;;;;;;11.74;67.24;100644.72;4935906;29;20171;-47
2023/05/10 05:24:12;;;;;;;8.15;3.47;;;;;;;11.74;66.83;100632.19;4936228;29;20296;-48
2023/05/10 05:26:37;;;;;;;4.45;3.50;;;;;;;11.89;66.79;100643.19;4949694;29;20187;-48
2023/05/10 05:29:03;;;;;;;5.72;3.50;;;;;;;11.89;66.48;100633.31;4954896;29;20163;-47
2023/05/10 05:31:28;;;;;;;5.88;3.72;;;;;;;11.95;66.61;100635.72;4954740;28;20214;-46
2023/05/10 05:33:55;;;;;;;6.22;3.95;;;;;;;11.95;66.38;100640.22;4952868;29;20167;-48
2023/05/10 05:36:20;;;;;;;8.20;3.53;;;;;;;11.88;66.61;100634.25;4935838;29;20206;-45
2023/05/10 05:38:46;;;;;;;4.70;3.35;;;;;;;11.91;66.87;100642.16;4935327;29;20686;-49
2023/05/10 05:41:11;;;;;;;7.57;4.25;;;;;;;11.94;66.85;100633.97;4935550;29;20604;-47
2023/05/10 05:43:37;;;;;;;5.38;4.13;;;;;;;11.98;66.65;100642.75;4935411;29;20286;-46
2023/05/10 05:46:02;;;;;;;4.22;3.83;;;;;;;12.10;66.43;100644.84;4948932;28;20179;-48
2023/05/10 05:48:29;;;;;;;4.63;3.63;;;;;;;12.32;66.13;100644.69;4954449;29;20206;-51
2023/05/10 05:50:59;;;;;;;4.10;3.30;;;;;;;12.44;65.61;100637.88;4930632;29;20231;-47
2023/05/10 05:53:24;;;;;;;3.78;3.40;;;;;;;12.63;65.21;100632.44;4942948;29;20218;-51
2023/05/10 05:55:58;;;;;;;4.55;3.75;;;;;;;12.87;65.00;100640.22;4950186;29;20190;-46
2023/05/10 05:58:24;;;;;;;5.05;3.47;;;;;;;12.94;64.45;100631.78;4969472;23;20602;-50
2023/05/10 06:00:54;;;;;;;5.82;3.58;;;;;;;13.25;63.84;100634.66;4973179;28;20190;-51
2023/05/10 06:03:20;;;;;;;6.40;3.55;;;;;;;13.26;63.27;100621.16;4973217;28;20189;-50
2023/05/10 06:05:46;;;;;;;5.95;3.35;;;;;;;13.41;62.74;100614.13;4973886;28;20172;-50
2023/05/10 06:08:12;;;;;;;9.32;3.22;;;;;;;13.72;62.19;100609.75;4973933;28;20193;-50
2023/05/10 06:10:37;;;;;;;5.95;3.63;;;;;;;13.76;62.02;100609.50;4973464;28;20178;-49
2023/05/10 06:13:03;;;;;;;4.72;3.67;;;;;;;13.99;61.35;100605.56;4973506;28;20277;-51
2023/05/10 06:15:28;;;;;;;5.32;4.00;;;;;;;13.93;60.99;100622.03;4973518;28;20177;-50
2023/05/10 06:17:55;;;;;;;7.15;3.83;;;;;;;13.82;60.77;100594.84;4973453;28;20708;-50
2023/05/10 06:20:20;;;;;;;3.45;3.15;;;;;;;14.08;60.88;100611.34;4973772;28;20269;-51
2023/05/10 06:22:46;;;;;;;5.20;3.50;;;;;;;14.09;60.56;100605.88;4973202;28;20285;-50
2023/05/10 06:25:11;;;;;;;4.80;3.47;;;;;;;14.15;60.78;100597.47;4973572;28;20201;-53
2023/05/10 06:27:37;;;;;;;3.65;3.35;;;;;;;14.54;59.81;100595.22;4956120;28;20189;-50
2023/05/10 06:30:03;;;;;;;6.22;3.85;;;;;;;14.37;59.81;100585.47;4973692;28;20174;-50
2023/05/10 06:32:29;;;;;;;6.63;3.92;;;;;;;14.23;59.64;100580.84;4955654;28;20190;-49
2023/05/10 06:34:54;;;;;;;6.10;3.97;;;;;;;14.77;59.67;100596.63;4973194;28;20170;-51
2023/05/10 06:37:20;;;;;;;4.80;3.70;;;;;;;14.78;59.35;100596.53;4973291;28;20724;-49
2023/05/10 06:39:45;;;;;;;4.38;3.97;;;;;;;14.37;59.36;100585.47;4973289;28;20186;-49
2023/05/10 06:42:11;;;;;;;4.50;3.77;;;;;;;14.45;59.88;100579.59;4954569;28;20917;-53
2023/05/10 06:44:36;;;;;;;3.92;3.63;;;;;;;14.10;59.85;100595.97;4973226;28;20154;-53
2023/05/10 06:47:02;;;;;;;4.10;3.70;;;;;;;14.14;59.85;100592.16;4972841;28;20658;-47
2023/05/10 06:49:28;;;;;;;4.10;3.70;;;;;;;14.45;60.22;100601.16;4939053;28;20269;-49
2023/05/10 06:51:55;;;;;;;4.35;3.95;;;;;;;14.65;59.84;100603.63;4972859;28;20209;-52
2023/05/10 06:54:20;;;;;;;5.78;3.88;;;;;;;14.73;59.53;100598.63;4973229;28;20175;-50
2023/05/10 06:56:46;;;;;;;7.28;3.80;;;;;;;14.70;58.88;100593.41;4965435;28;20185;-51
2023/05/10 06:59:13;;;;;;;8.07;3.72;;;;;;;14.47;59.00;100589.34;4972260;28;20292;-51
2023/05/10 07:01:39;;;;;;;7.55;3.85;;;;;;;14.22;59.55;100590.75;4969850;28;20193;-50
2023/05/10 07:04:04;;;;;;;4.80;3.80;;;;;;;14.29;59.84;100599.34;4973386;28;20170;-50
2023/05/10 07:06:30;;;;;;;5.35;3.50;;;;;;;14.49;59.83;100603.59;4973161;28;20178;-51
2023/05/10 07:08:55;;;;;;;4.80;3.47;;;;;;;14.61;59.68;100604.75;4955017;28;20174;-52
2023/05/10 07:11:21;;;;;;;8.45;3.83;;;;;;;14.61;59.95;100611.00;4973410;28;20166;-50
2023/05/10 07:13:46;;;;;;;4.82;3.75;;;;;;;14.46;59.72;100614.56;4973005;28;20212;-48
2023/05/10 07:16:12;;;;;;;4.88;3.50;;;;;;;14.50;60.06;100609.88;4973063;28;20165;-51
2023/05/10 07:18:37;;;;;;;5.60;4.00;;;;;;;14.41;59.75;100598.66;4972818;28;20206;-50
2023/05/10 07:21:03;;;;;;;4.53;3.90;;;;;;;14.31;60.25;100618.16;4977388;28;20205;-51
2023/05/10 07:23:29;;;;;;;7.32;3.90;;;;;;;14.66;60.21;100626.91;4979605;28;20206;-48
2023/05/10 07:25:57;;;;;;;5.38;3.67;;;;;;;14.65;60.03;100617.09;4981872;28;20178;-50
2023/05/10 07:28:23;;;;;;;6.75;4.05;;;;;;;14.41;59.87;100609.44;4964964;28;20166;-48
2023/05/10 07:30:48;;;;;;;9.38;3.70;;;;;;;14.81;60.33;100626.00;4980115;28;20213;-50
2023/05/10 07:33:14;;;;;;;6.63;3.75;;;;;;;15.05;59.76;100639.00;4972693;28;20248;-49
2023/05/10 07:35:40;;;;;;;4.28;3.67;;;;;;;15.11;58.91;100618.84;4972193;28;20176;-50
2023/05/10 07:38:05;;;;;;;4.85;3.90;;;;;;;14.95;58.91;100610.81;4971486;28;20186;-48
2023/05/10 07:40:31;;;;;;;4.97;3.50;;;;;;;15.18;59.24;100614.84;4972232;28;20163;-51
2023/05/10 07:42:57;;;;;;;4.43;3.60;;;;;;;15.35;58.78;100609.28;4972332;28;20197;-52
2023/05/10 07:45:23;;;;;;;7.38;3.85;;;;;;;15.54;58.89;100614.38;4972043;28;20178;-55
2023/05/10 07:47:49;;;;;;;5.78;3.72;;;;;;;15.77;58.60;100604.03;4972153;28;20173;-48
2023/05/10 07:50:15;;;;;;;5.72;3.80;;;;;;;15.32;58.11;100598.66;4971979;28;20170;-52
2023/05/10 07:52:41;;;;;;;4.38;3.95;;;;;;;15.23;58.26;100593.84;4971845;28;20698;-48
2023/05/10 07:55:07;;;;;;;7.35;3.95;;;;;;;15.82;58.56;100610.84;5001854;28;20176;-48
2023/05/10 07:57:34;;;;;;;6.88;4.28;;;;;;;15.88;57.83;100600.66;5069942;23;20251;-55
2023/05/10 07:59:59;;;;;;;5.63;3.85;;;;;;;15.96;57.82;100604.59;4982695;28;20720;-54
2023/05/10 08:02:25;;;;;;;10.93;4.47;;;;;;;15.73;58.37;100600.63;4981345;28;20289;-55
2023/05/10 08:04:51;;;;;;;7.88;4.00;;;;;;;15.93;58.78;100604.75;4969535;28;20224;-55
2023/05/10 08:07:17;;;;;;;7.07;4.20;;;;;;;16.02;58.12;100623.09;4952528;28;20208;-53
2023/05/10 08:09:42;;;;;;;8.05;4.20;;;;;;;15.58;57.88;100607.84;4968372;28;20249;-55
2023/05/10 08:12:08;;;;;;;6.35;3.72;;;;;;;15.73;58.20;100614.16;4970244;28;20553;-55
2023/05/10 08:14:34;;;;;;;5.38;3.97;;;;;;;15.97;57.64;100606.31;4954044;28;20488;-53
2023/05/10 08:16:59;;;;;;;6.55;4.20;;;;;;;16.07;57.65;100603.91;4969834;28;20668;-53
2023/05/10 08:19:25;;;;;;;5.30;3.33;;;;;;;16.44;57.59;100615.88;4969964;28;20225;-55
2023/05/10 08:21:50;;;;;;;5.15;3.78;;;;;;;16.20;57.51;100617.44;4970093;28;20640;-53
2023/05/10 08:24:16;;;;;;;4.68;4.28;;;;;;;15.94;57.55;100630.84;4968976;28;20265;-53
2023/05/10 08:26:41;;;;;;;4.40;4.00;;;;;;;16.35;57.64;100627.25;4969765;28;20193;-55
2023/05/10 08:29:07;;;;;;;5.65;3.92;;;;;;;16.72;57.08;100618.56;4970045;28;20185;-55
2023/05/10 08:31:32;;;;;;;4.65;3.95;;;;;;;16.87;56.74;100615.69;4969688;28;20241;-55
2023/05/10 08:33:58;;;;;;;5.63;3.20;;;;;;;17.65;56.44;100614.81;4969132;28;20582;-53
2023/05/10 08:36:24;;;;;;;3.95;3.60;;;;;;;17.76;55.22;100610.47;4969652;28;20549;-52
2023/05/10 08:38:53;;;;;;;4.22;3.28;;;;;;;18.08;54.68;100603.63;4952317;28;20198;-51
2023/05/10 08:41:26;;;;;;;4.35;3.95;;;;;;;17.49;54.04;100592.47;4969567;28;20577;-53
2023/05/10 08:43:53;;;;;;;5.65;3.42;;;;;;;17.59;54.68;100607.13;4968117;28;20721;-53
2023/05/10 08:46:20;;;;;;;6.53;4.03;;;;;;;18.29;54.79;100603.00;4970081;28;20204;-52
2023/05/10 08:48:48;;;;;;;4.60;3.40;;;;;;;18.24;53.12;100584.34;4969345;28;20170;-54
2023/05/10 08:51:17;;;;;;;5.25;4.20;;;;;;;18.03;53.02;100583.22;4951231;28;20672;-52
2023/05/10 08:53:43;;;;;;;4.60;4.05;;;;;;;18.35;51.84;100564.56;4967850;28;20668;-52
2023/05/10 08:56:09;;;;;;;6.68;3.40;;;;;;;18.80;51.82;100569.34;4952235;28;20613;-51
2023/05/10 08:58:36;;;;;;;4.13;3.33;;;;;;;18.75;51.60;100572.41;4969398;28;20211;-52
2023/05/10 09:01:02;;;;;;;5.07;3.40;;;;;;;18.91;51.54;100570.28;4952211;28;20240;-52
2023/05/10 09:03:28;;;;;;;6.25;3.38;;;;;;;18.71;51.79;100571.75;4949960;28;20478;-52
2023/05/10 09:05:55;;;;;;;12.18;4.22;;;;;;;19.14;50.92;100564.91;4969617;28;20273;-51
2023/05/10 09:08:25;;;;;;;4.45;3.40;;;;;;;19.81;50.39;100564.13;4950438;28;20186;-52
2023/05/10 09:10:51;;;;;;;6.65;3.60;;;;;;;19.87;49.75;100554.56;4969502;28;20724;-52
2023/05/10 09:13:18;;;;;;;6.75;3.40;;;;;;;19.81;49.40;100555.97;4968340;28;20375;-53
2023/05/10 09:15:45;;;;;;;4.30;3.60;;;;;;;19.66;49.50;100547.16;4969285;28;20190;-54
2023/05/10 09:18:11;;;;;;;7.38;3.40;;;;;;;19.54;50.14;100550.84;4951869;28;20214;-53
2023/05/10 09:20:36;;;;;;;5.15;3.50;;;;;;;19.22;49.44;100540.72;4954130;28;20203;-49
2023/05/10 09:23:02;;;;;;;3.92;3.38;;;;;;;19.26;49.76;100558.50;4974099;28;20233;-49
2023/05/10 09:25:28;;;;;;;6.65;4.47;;;;;;;18.71;50.04;100547.31;4974451;28;20577;-50
2023/05/10 09:27:54;;;;;;;5.13;3.58;;;;;;;18.90;50.62;100556.81;4974110;28;20166;-53
2023/05/10 09:30:30;;;;;;;4.40;3.63;;;;;;;18.44;50.59;100554.88;4974155;28;20520;-50
2023/05/10 09:32:58;;;;;;;8.88;3.90;;;;;;;18.26;51.36;100566.13;4973841;28;20221;-50
2023/05/10 09:35:26;;;;;;;4.72;3.55;;;;;;;18.85;51.27;100581.59;4974125;28;20413;-48
2023/05/10 09:37:53;;;;;;;6.65;3.60;;;;;;;18.24;51.52;100584.34;4973854;28;20354;-48
2023/05/10 09:40:21;;;;;;;4.47;3.80;;;;;;;18.46;52.04;100586.34;4974043;28;20174;-49
2023/05/10 09:43:00;;;;;;;4.00;3.70;;;;;;;18.66;51.18;100579.38;4956565;28;20281;-49
2023/05/10 09:45:31;;;;;;;16.85;4.82;;;;;;;18.48;51.74;100589.78;4973810;28;20162;-51
2023/05/10 09:47:58;;;;;;;5.05;3.55;;;;;;;18.70;52.58;100591.75;4973995;28;20177;-50
2023/05/10 09:50:24;;;;;;;4.18;3.67;;;;;;;18.50;51.21;100589.69;4974168;28;20181;-50
2023/05/10 09:52:53;;;;;;;7.70;4.20;;;;;;;18.20;51.18;100572.00;4974022;28;20672;-49
2023/05/10 09:55:21;;;;;;;10.30;3.50;;;;;;;18.45;51.76;100581.88;4974018;28;20155;-48
2023/05/10 09:57:48;;;;;;;5.05;3.60;;;;;;;18.85;51.32;100595.19;4973888;28;20178;-47
2023/05/10 10:00:19;;;;;;;8.02;3.70;;;;;;;18.64;50.65;100581.34;4973861;28;20268;-50
2023/05/10 10:02:54;;;;;;;5.85;3.78;;;;;;;18.84;51.03;100582.56;4973793;28;20580;-48
2023/05/10 10:05:19;;;;;;;5.30;3.85;;;;;;;19.05;50.80;100600.91;4973291;28;20166;-49
2023/05/10 10:07:45;;;;;;;3.97;3.58;;;;;;;19.02;50.73;100587.56;4973496;28;20173;-50
2023/05/10 10:10:12;;;;;;;4.28;3.67;;;;;;;18.94;51.00;100591.75;4973495;28;20196;-53
2023/05/10 10:12:39;;;;;;;4.03;3.55;;;;;;;19.17;50.65;100582.78;4973281;28;20213;-49
2023/05/10 10:15:06;;;;;;;5.88;3.70;;;;;;;19.38;50.35;100586.53;4973395;28;20642;-48
2023/05/10 10:17:35;;;;;;;5.05;4.20;;;;;;;19.18;50.13;100582.69;4973126;28;20169;-49
2023/05/10 10:20:03;;;;;;;6.93;4.20;;;;;;;18.85;50.27;100578.88;4973314;28;20201;-48
2023/05/10 10:22:28;;;;;;;7.50;4.00;;;;;;;18.86;50.64;100586.03;4955895;28;20270;-50
2023/05/10 10:24:54;;;;;;;6.10;3.60;;;;;;;19.08;50.70;100585.22;4973353;28;20165;-50
2023/05/10 10:27:49;;;;;;;4.15;3.75;;;;;;;19.26;51.26;100595.66;4973418;28;20228;-53
2023/05/10 10:31:02;;;;;;;3.50;3.28;;;;;;;19.48;51.16;100598.41;4960250;28;20236;-52
2023/05/10 10:33:46;;;;;;;5.45;3.88;;;;;;;20.26;50.63;100599.38;4912552;29;20215;-49
2023/05/10 10:36:12;;;;;;;4.18;3.67;;;;;;;20.07;50.62;100607.31;4913057;29;20219;-48
2023/05/10 10:38:41;;;;;;;5.18;3.75;;;;;;;19.86;49.31;100580.06;4939736;28;20578;-49
2023/05/10 10:41:26;;;;;;;4.07;3.70;;;;;;;19.49;49.79;100580.25;4973093;28;20656;-53
2023/05/10 10:44:30;;;;;;;5.50;3.63;;;;;;;19.38;50.51;100591.97;4955424;28;20206;-49
2023/05/10 10:47:03;;;;;;;5.60;4.32;;;;;;;19.68;49.55;100585.94;4973046;28;20518;-49
2023/05/10 10:49:33;;;;;;;4.45;4.00;;;;;;;19.85;49.42;100567.44;4972806;28;20509;-50
2023/05/10 10:52:28;;;;;;;6.97;4.00;;;;;;;19.87;49.74;100584.47;4972791;28;20190;-48
2023/05/10 10:55:09;;;;;;;4.57;3.45;;;;;;;19.49;49.80;100581.13;4972327;28;20174;-50
2023/05/10 10:57:47;;;;;;;5.18;3.63;;;;;;;19.68;50.43;100590.53;4972778;28;20181;-48
2023/05/10 11:00:40;;;;;;;4.22;3.55;;;;;;;19.33;51.40;100592.34;4972581;28;20170;-49
2023/05/10 11:03:14;;;;;;;4.10;3.80;;;;;;;19.19;50.98;100597.97;4972187;28;20231;-48
2023/05/10 11:05:49;;;;;;;7.25;3.60;;;;;;;19.26;50.76;100587.50;4968426;28;20585;-48
2023/05/10 11:08:27;;;;;;;5.43;3.28;;;;;;;19.39;50.82;100598.25;4971898;28;20208;-49
2023/05/10 11:10:58;;;;;;;5.63;3.67;;;;;;;19.23;50.77;100604.03;4972251;28;20256;-50
2023/05/10 11:13:44;;;;;;;4.50;3.10;;;;;;;19.67;50.86;100610.53;4970904;28;20356;-49
2023/05/10 11:16:10;;;;;;;4.32;3.47;;;;;;;19.04;51.00;100593.75;4972020;28;20518;-47
2023/05/10 11:18:37;;;;;;;4.75;3.65;;;;;;;19.19;51.38;100614.28;4971600;28;20190;-48
2023/05/10 11:21:04;;;;;;;5.75;3.40;;;;;;;19.19;51.59;100618.84;4954369;28;20213;-48
2023/05/10 11:23:49;;;;;;;4.13;3.65;;;;;;;19.05;51.08;100619.94;4971369;28;20609;-47
2023/05/10 11:26:14;;;;;;;6.15;4.05;;;;;;;18.94;51.21;100615.31;4971552;28;20649;-49
2023/05/10 11:28:44;;;;;;;3.70;3.40;;;;;;;18.79;51.59;100617.34;4971490;28;20184;-50
2023/05/10 11:31:12;;;;;;;5.05;3.75;;;;;;;18.65;52.21;100614.78;4954410;28;20177;-48